Time;durP1;ratioP1;P1;durP2;ratioP2;P2;SDS_P1;SDS_P2;PMS_P1;PMS_P2;Temp;Humidity;BMP_temperature;BMP_pressure;BME280_temperature;BME280_humidity;BME280_pressure;Samples;Min_cycle;Max_cycle;Signal;HPM_P1;HPM_P2
2022/12/24 00:00:14;;;;;;;14.30;7.82;;;;;;;8.52;79.18;98972.28;4918537;28;96949;-83
2022/12/24 00:02:39;;;;;;;11.20;7.70;;;;;;;8.68;79.95;98985.47;4936930;28;97257;-82
2022/12/24 00:05:06;;;;;;;11.25;7.35;;;;;;;8.78;80.06;98975.41;4909525;28;101137;-82
2022/12/24 00:07:31;;;;;;;10.65;7.00;;;;;;;8.74;79.19;98956.41;4900561;28;97694;-83
2022/12/24 00:09:57;;;;;;;10.27;7.13;;;;;;;8.84;79.12;98964.66;4910628;28;96984;-82
2022/12/24 00:12:23;;;;;;;13.85;7.95;;;;;;;8.95;78.82;98970.22;4932716;28;97349;-82
2022/12/24 00:14:49;;;;;;;14.95;7.68;;;;;;;9.03;78.42;98970.69;4909292;28;100861;-84
2022/12/24 00:17:15;;;;;;;17.55;8.82;;;;;;;9.02;78.30;98958.53;4913830;28;101464;-82
2022/12/24 00:19:42;;;;;;;13.63;8.05;;;;;;;8.94;78.15;98981.63;4919895;28;97140;-83
2022/12/24 00:22:07;;;;;;;12.55;7.97;;;;;;;8.70;78.86;98980.19;4911088;28;97531;-82
2022/12/24 00:24:33;;;;;;;12.35;7.03;;;;;;;8.71;78.86;98994.97;4904676;28;100084;-82
2022/12/24 00:26:59;;;;;;;11.30;7.50;;;;;;;8.77;79.30;98984.19;4901543;28;101145;-82
2022/12/24 00:29:24;;;;;;;10.18;6.85;;;;;;;8.43;78.99;98925.63;4918552;28;96810;-82
2022/12/24 00:31:50;;;;;;;11.60;7.00;;;;;;;8.74;79.13;98971.25;4930344;28;97187;-83
2022/12/24 00:34:15;;;;;;;11.85;6.57;;;;;;;8.65;79.12;98976.94;4946491;28;97641;-82
2022/12/24 00:36:41;;;;;;;9.13;6.43;;;;;;;8.70;78.75;98982.81;4920443;28;100212;-83
2022/12/24 00:39:06;;;;;;;9.18;6.38;;;;;;;8.80;78.85;98982.28;4925022;28;97167;-83
2022/12/24 00:41:32;;;;;;;12.13;6.90;;;;;;;8.71;78.82;98984.50;4917228;28;97191;-82
2022/12/24 00:44:05;;;;;;;11.68;5.57;;;;;;;8.66;78.19;98952.47;4885911;28;101610;-83
2022/12/24 00:46:33;;;;;;;10.30;6.38;;;;;;;8.81;78.59;98978.75;4912161;28;101016;-82
2022/12/24 00:48:59;;;;;;;10.05;5.97;;;;;;;8.91;78.56;98980.91;4929087;28;96975;-82
2022/12/24 00:51:25;;;;;;;11.95;6.13;;;;;;;8.61;78.84;98964.00;4949295;28;97494;-82
2022/12/24 00:53:51;;;;;;;10.23;6.38;;;;;;;8.72;78.88;98994.88;4935566;28;101677;-83
2022/12/24 00:56:17;;;;;;;7.45;5.55;;;;;;;8.52;79.06;98967.06;4946088;28;97698;-82
2022/12/24 00:58:43;;;;;;;5.80;4.70;;;;;;;8.75;78.89;98999.94;4946127;28;97169;-82
2022/12/24 01:01:08;;;;;;;7.30;4.82;;;;;;;8.76;78.77;99003.44;4911587;28;96811;-82
2022/12/24 01:03:37;;;;;;;12.50;5.80;;;;;;;8.84;78.95;99001.28;4918598;28;101667;-83
2022/12/24 01:06:07;;;;;;;8.85;5.25;;;;;;;8.71;79.28;98966.19;4886073;28;101666;-82
2022/12/24 01:08:34;;;;;;;10.83;6.07;;;;;;;8.84;78.01;98977.72;4925332;28;97194;-82
2022/12/24 01:11:01;;;;;;;9.65;5.45;;;;;;;8.99;78.17;98995.34;4915493;28;96859;-83
2022/12/24 01:13:27;;;;;;;13.13;6.90;;;;;;;9.01;78.13;98982.16;4918971;28;101476;-82
2022/12/24 01:15:52;;;;;;;12.38;6.63;;;;;;;9.09;77.98;98994.88;4917962;28;101671;-83
2022/12/24 01:18:18;;;;;;;9.15;6.07;;;;;;;8.99;77.71;98978.78;4944426;28;96917;-83
2022/12/24 01:20:44;;;;;;;10.18;6.15;;;;;;;9.14;77.86;99005.97;4913084;28;97210;-87
2022/12/24 01:23:10;;;;;;;10.40;6.57;;;;;;;9.04;77.64;98993.31;4912962;28;101443;-83
2022/12/24 01:25:38;;;;;;;11.40;6.53;;;;;;;8.94;77.79;98984.22;4909484;28;101596;-83
2022/12/24 01:28:05;;;;;;;8.07;5.22;;;;;;;8.88;78.53;98995.00;4877155;28;97322;-83
2022/12/24 01:30:31;;;;;;;6.78;5.35;;;;;;;8.82;78.37;98966.50;4924837;28;97409;-83
2022/12/24 01:32:57;;;;;;;8.50;5.82;;;;;;;8.76;78.17;98972.03;4914232;28;100918;-82
2022/12/24 01:35:22;;;;;;;8.43;5.55;;;;;;;8.70;78.34;98973.19;4932215;28;97830;-84
2022/12/24 01:37:48;;;;;;;10.02;5.68;;;;;;;8.70;79.11;98982.81;4903449;28;97259;-82
2022/12/24 01:45:53;;;;;;;10.25;5.22;;;;;;;8.79;78.36;98988.44;4928513;28;101118;-82
2022/12/24 01:48:37;;;;;;;7.70;5.07;;;;;;;8.72;78.36;98994.88;4916064;28;96748;-82
2022/12/24 01:51:28;;;;;;;8.25;5.20;;;;;;;8.61;78.96;98997.16;4936623;28;97983;-82
2022/12/24 01:54:04;;;;;;;10.48;5.30;;;;;;;8.54;79.32;98998.34;4898926;28;101037;-82
2022/12/24 01:56:31;;;;;;;8.10;5.40;;;;;;;8.63;79.28;99000.53;4944412;28;101543;-82
2022/12/24 01:59:07;;;;;;;8.02;5.22;;;;;;;8.61;79.24;98998.00;4918143;28;97320;-81
2022/12/24 02:01:33;;;;;;;9.70;4.85;;;;;;;8.54;79.54;98986.13;4927662;28;96937;-82
2022/12/24 02:04:01;;;;;;;8.80;5.68;;;;;;;8.50;79.89;98987.19;4910265;28;98314;-82
2022/12/24 02:06:26;;;;;;;8.02;5.03;;;;;;;8.45;80.18;98977.88;4929880;28;101238;-82
2022/12/24 02:08:52;;;;;;;8.90;5.40;;;;;;;8.30;80.64;98984.63;4955574;28;96806;-82
2022/12/24 02:11:20;;;;;;;10.55;6.43;;;;;;;8.26;81.06;98983.91;4933070;28;96979;-83
2022/12/24 02:13:54;;;;;;;9.68;5.95;;;;;;;8.29;81.78;98982.91;4923290;28;101800;-82
2022/12/24 02:16:53;;;;;;;11.98;5.47;;;;;;;8.29;81.40;98982.91;4950526;28;97923;-82
2022/12/24 02:19:40;;;;;;;8.52;5.90;;;;;;;8.28;80.93;98987.28;4919965;28;96820;-82
2022/12/24 02:22:31;;;;;;;7.65;5.90;;;;;;;8.25;81.66;98979.59;4932945;28;97110;-82
2022/12/24 02:25:15;;;;;;;10.50;5.97;;;;;;;8.28;81.33;98979.44;4920167;28;99909;-83
2022/12/24 02:27:40;;;;;;;7.97;5.30;;;;;;;8.21;81.89;98980.66;4914422;28;101328;-82
2022/12/24 02:30:17;;;;;;;8.15;5.20;;;;;;;8.19;81.66;98964.19;4931151;28;96674;-82
2022/12/24 02:32:57;;;;;;;5.15;3.95;;;;;;;8.32;81.29;98974.91;4930993;28;97166;-82
2022/12/24 02:35:32;;;;;;;7.45;4.43;;;;;;;8.44;81.24;98973.56;4930068;28;98004;-81
2022/12/24 02:38:02;;;;;;;8.70;4.95;;;;;;;8.46;80.17;98971.72;4950830;28;100182;-82
2022/12/24 02:40:32;;;;;;;6.47;4.35;;;;;;;8.48;80.72;98985.56;4915145;28;97908;-83
2022/12/24 02:43:03;;;;;;;9.15;4.40;;;;;;;8.50;80.47;98974.13;4938735;28;97275;-81
2022/12/24 02:45:31;;;;;;;9.25;4.78;;;;;;;8.31;80.43;98968.84;4915019;28;98550;-82
2022/12/24 02:47:57;;;;;;;7.10;3.90;;;;;;;8.37;80.87;98976.41;4937792;28;102502;-82
2022/12/24 02:50:24;;;;;;;9.38;4.60;;;;;;;8.50;80.45;98984.59;4914775;28;96774;-82
2022/12/24 02:52:50;;;;;;;7.05;4.70;;;;;;;8.50;80.34;98979.34;4944099;28;97444;-83
2022/12/24 02:55:25;;;;;;;7.63;4.40;;;;;;;8.53;80.29;98973.97;4949812;28;101656;-82
2022/12/24 02:58:16;;;;;;;12.50;5.38;;;;;;;8.50;80.33;98975.91;4925804;28;98007;-84
2022/12/24 03:01:15;;;;;;;7.20;4.55;;;;;;;8.45;80.46;98990.94;4938097;28;97196;-83
2022/12/24 03:03:53;;;;;;;6.95;4.53;;;;;;;8.39;80.17;98984.22;4923626;28;96706;-82
2022/12/24 03:06:39;;;;;;;8.80;4.47;;;;;;;8.39;80.58;98990.31;4925142;28;100821;-83
2022/12/24 03:09:16;;;;;;;7.13;4.28;;;;;;;8.41;80.51;98994.59;4908636;28;101099;-81
2022/12/24 03:11:56;;;;;;;12.60;5.18;;;;;;;8.37;80.39;98978.19;4914141;28;97011;-82
2022/12/24 03:14:22;;;;;;;8.32;4.35;;;;;;;8.34;80.76;98983.56;4912339;28;97965;-83
2022/12/24 03:16:48;;;;;;;5.78;4.10;;;;;;;8.37;80.98;98976.41;4938163;28;97856;-82
2022/12/24 03:19:14;;;;;;;8.43;4.57;;;;;;;8.44;80.30;98982.25;4913303;28;100745;-82
2022/12/24 03:21:41;;;;;;;6.47;4.07;;;;;;;8.52;80.50;98987.97;4940660;28;97197;-82
2022/12/24 03:24:09;;;;;;;7.25;4.05;;;;;;;8.35;80.86;98957.34;4926831;28;96986;-82
2022/12/24 03:26:35;;;;;;;6.18;3.97;;;;;;;8.35;80.30;98953.88;4946951;28;101190;-82
2022/12/24 03:29:04;;;;;;;7.22;4.50;;;;;;;8.59;80.41;98986.75;4926481;28;101916;-83
2022/12/24 03:31:42;;;;;;;6.47;4.35;;;;;;;8.61;80.08;98987.53;4919893;28;96943;-82
2022/12/24 03:34:08;;;;;;;5.68;3.50;;;;;;;8.64;80.14;98980.44;4898787;28;97276;-82
2022/12/24 03:36:34;;;;;;;7.28;4.28;;;;;;;8.63;79.64;98971.75;4929067;28;101477;-82
2022/12/24 03:38:59;;;;;;;4.93;3.22;;;;;;;8.74;79.76;98992.19;4947109;28;101374;-82
2022/12/24 03:41:25;;;;;;;5.43;3.53;;;;;;;8.83;79.51;99003.06;4927264;28;97248;-83
2022/12/24 03:43:50;;;;;;;6.70;3.03;;;;;;;8.89;79.21;98999.31;4929111;28;97312;-84
2022/12/24 03:46:16;;;;;;;4.45;2.70;;;;;;;8.91;78.95;98994.84;4897250;28;101397;-82
2022/12/24 03:48:42;;;;;;;4.93;2.90;;;;;;;8.93;79.16;98997.38;4946679;28;97649;-81
2022/12/24 03:51:22;;;;;;;7.22;2.80;;;;;;;8.96;78.77;98997.22;4926975;28;96931;-83
2022/12/24 03:53:48;;;;;;;4.93;2.83;;;;;;;8.80;78.88;98981.44;4923799;28;98169;-83
2022/12/24 03:56:14;;;;;;;4.57;2.80;;;;;;;9.02;78.57;99015.28;4907800;28;101317;-82
2022/12/24 03:58:39;;;;;;;5.20;3.40;;;;;;;9.03;78.59;99003.88;4910916;28;101622;-82
2022/12/24 04:01:05;;;;;;;6.97;3.80;;;;;;;9.05;78.64;99005.50;4923719;28;97220;-82
2022/12/24 04:03:31;;;;;;;7.10;4.07;;;;;;;9.06;78.61;99006.34;4905393;28;97590;-83
2022/12/24 04:06:05;;;;;;;4.38;2.70;;;;;;;9.18;78.82;99021.44;4915399;28;101296;-84
2022/12/24 04:08:31;;;;;;;4.00;2.25;;;;;;;9.19;78.60;99007.47;4896823;28;101012;-83
2022/12/24 04:10:56;;;;;;;2.35;1.90;;;;;;;9.22;78.58;99015.16;4910887;28;96928;-84
2022/12/24 04:13:22;;;;;;;3.17;1.48;;;;;;;9.33;78.93;99019.84;4919093;28;98173;-82
2022/12/24 04:16:06;;;;;;;3.25;1.92;;;;;;;9.33;79.49;99008.53;4920320;28;101410;-82
2022/12/24 04:18:31;;;;;;;2.95;1.65;;;;;;;9.25;79.11;98993.19;4942323;28;101711;-83
2022/12/24 04:20:57;;;;;;;3.17;1.73;;;;;;;9.41;79.58;99015.06;4914575;28;97227;-84
2022/12/24 04:23:23;;;;;;;3.00;1.77;;;;;;;9.43;79.67;99015.03;4931114;28;97048;-82
2022/12/24 04:25:49;;;;;;;3.25;1.80;;;;;;;9.45;79.42;99024.50;4927320;28;101270;-81
2022/12/24 04:28:15;;;;;;;4.60;2.15;;;;;;;9.47;79.81;99021.78;4938028;28;101918;-82
2022/12/24 04:30:40;;;;;;;3.67;1.80;;;;;;;9.52;79.73;99027.66;4923959;28;96697;-83
2022/12/24 04:33:06;;;;;;;4.32;1.95;;;;;;;9.48;79.87;99029.59;4931196;28;97286;-82
2022/12/24 04:35:32;;;;;;;2.50;1.75;;;;;;;9.50;79.72;99022.47;4931329;28;101290;-83
2022/12/24 04:37:58;;;;;;;3.03;2.17;;;;;;;9.47;80.31;99011.31;4941008;28;97914;-83
2022/12/24 04:40:24;;;;;;;5.63;2.55;;;;;;;9.59;79.87;99017.69;4906061;28;97273;-82
2022/12/24 04:42:49;;;;;;;2.97;2.05;;;;;;;9.63;80.35;99027.09;4919330;28;96930;-82
2022/12/24 04:45:16;;;;;;;4.07;2.50;;;;;;;9.63;80.37;99041.06;4939185;28;98019;-82
2022/12/24 04:47:41;;;;;;;5.15;2.72;;;;;;;9.66;80.49;99038.28;4945145;28;97801;-82
2022/12/24 04:50:08;;;;;;;4.07;2.25;;;;;;;9.65;80.25;99041.81;4911535;28;97208;-82
2022/12/24 04:52:34;;;;;;;4.45;2.00;;;;;;;9.64;79.99;99034.88;4944254;28;100566;-82
2022/12/24 04:54:59;;;;;;;4.22;2.40;;;;;;;9.68;80.27;99035.56;4930711;28;101180;-82
2022/12/24 04:57:25;;;;;;;5.75;2.75;;;;;;;9.71;80.54;99035.41;4907817;28;101005;-82
2022/12/24 04:59:50;;;;;;;3.60;2.30;;;;;;;9.72;80.42;99027.50;4948957;28;96729;-83
2022/12/24 05:02:16;;;;;;;4.32;2.80;;;;;;;9.72;80.47;99031.88;4944607;28;97371;-82
2022/12/24 05:04:42;;;;;;;2.70;2.17;;;;;;;9.60;80.67;99030.75;4945405;28;100985;-82
2022/12/24 05:07:07;;;;;;;3.95;2.05;;;;;;;9.62;80.88;99044.59;4902577;28;101451;-83
2022/12/24 05:09:33;;;;;;;5.05;2.40;;;;;;;9.72;80.64;99052.84;4928646;28;97084;-82
2022/12/24 05:11:59;;;;;;;5.22;1.77;;;;;;;9.73;80.89;99050.13;4955416;28;97846;-85
2022/12/24 05:14:24;;;;;;;6.30;2.25;;;;;;;9.72;81.14;99039.75;4928229;28;101563;-82
2022/12/24 05:16:50;;;;;;;2.53;1.60;;;;;;;9.79;81.16;99051.59;4919838;28;101736;-82
2022/12/24 05:19:15;;;;;;;3.63;2.10;;;;;;;9.73;80.81;99042.28;4901525;28;97418;-83
2022/12/24 05:21:41;;;;;;;3.13;1.70;;;;;;;9.83;81.11;99058.41;4915541;28;97303;-83
2022/12/24 05:26:53;;;;;;;2.55;1.63;;;;;;;9.85;81.44;99061.78;4928530;28;101176;-83
2022/12/24 05:29:19;;;;;;;6.60;1.80;;;;;;;9.80;81.44;99042.81;4916746;28;97027;-82
2022/12/24 05:31:45;;;;;;;6.88;2.22;;;;;;;9.89;80.88;99062.44;4913950;28;96880;-81
2022/12/24 05:34:12;;;;;;;6.72;2.00;;;;;;;9.89;81.04;99068.56;4919768;28;101806;-82
2022/12/24 05:36:38;;;;;;;5.13;1.73;;;;;;;9.91;81.36;99081.59;4930403;28;100748;-83
2022/12/24 05:39:04;;;;;;;4.75;2.00;;;;;;;9.88;81.02;99066.84;4944610;28;97018;-82
2022/12/24 05:41:30;;;;;;;3.50;1.52;;;;;;;9.85;81.21;99071.41;4911041;28;97647;-83
2022/12/24 05:43:55;;;;;;;5.22;1.90;;;;;;;9.92;81.14;99075.44;4940361;28;100834;-82
2022/12/24 05:46:22;;;;;;;4.57;1.85;;;;;;;9.93;80.93;99072.72;4932939;28;101621;-82
2022/12/24 05:48:49;;;;;;;3.42;1.70;;;;;;;9.95;80.79;99089.22;4905960;28;96665;-82
2022/12/24 05:51:21;;;;;;;4.00;1.90;;;;;;;9.95;80.54;99086.59;4926764;28;97123;-86
2022/12/24 05:53:46;;;;;;;;;;;;;;;9.94;81.25;99087.50;4948120;28;101781;-81
2022/12/24 05:56:16;;;;;;;4.75;1.92;;;;;;;9.67;80.70;99045.22;4935279;28;101941;-82
2022/12/24 05:58:42;;;;;;;6.32;2.10;;;;;;;9.87;81.04;99080.06;4917037;28;97305;-83
2022/12/24 06:01:08;;;;;;;3.38;1.83;;;;;;;9.94;80.67;99091.91;4886461;28;97447;-83
2022/12/24 06:03:35;;;;;;;5.47;2.78;;;;;;;9.95;80.54;99104.94;4918278;28;97629;-82
2022/12/24 06:06:16;;;;;;;3.72;1.65;;;;;;;9.97;80.32;99110.94;4919923;28;101519;-83
2022/12/24 06:08:42;;;;;;;4.82;2.10;;;;;;;9.90;80.29;99100.88;4899132;28;96648;-83
2022/12/24 06:11:10;;;;;;;3.92;1.85;;;;;;;9.95;80.40;99109.34;4913105;28;96888;-82
2022/12/24 06:13:35;;;;;;;6.70;1.65;;;;;;;9.98;80.61;99114.44;4934412;28;100898;-82
2022/12/24 06:16:03;;;;;;;4.97;1.58;;;;;;;9.90;80.26;99099.09;4922624;28;101184;-85
2022/12/24 06:18:30;;;;;;;3.83;1.67;;;;;;;9.94;80.01;99111.09;4898650;28;96793;-83
2022/12/24 06:20:56;;;;;;;6.10;1.42;;;;;;;10.00;79.97;99114.34;4926123;28;98083;-84
2022/12/24 06:23:22;;;;;;;4.95;1.45;;;;;;;9.98;79.77;99119.69;4916222;28;101264;-83
2022/12/24 06:25:49;;;;;;;5.25;1.83;;;;;;;10.05;80.24;99130.69;4912246;28;100921;-84
2022/12/24 06:28:14;;;;;;;3.72;1.50;;;;;;;9.97;79.96;99115.34;4928961;28;96722;-83
2022/12/24 06:30:40;;;;;;;5.47;1.65;;;;;;;9.97;79.81;99121.44;4960632;28;96921;-83
2022/12/24 06:33:06;;;;;;;7.13;1.80;;;;;;;10.04;80.08;99135.09;4921146;28;101579;-82
2022/12/24 06:35:32;;;;;;;4.22;2.00;;;;;;;10.08;80.00;99135.78;4916862;28;99884;-84
2022/12/24 06:37:58;;;;;;;3.88;1.63;;;;;;;10.12;79.59;99146.06;4895566;28;97370;-83
2022/12/24 06:40:25;;;;;;;2.85;1.58;;;;;;;10.07;79.95;99134.94;4934544;28;97325;-83
2022/12/24 06:42:50;;;;;;;4.78;2.22;;;;;;;10.16;79.86;99151.97;4929194;28;100985;-82
2022/12/24 06:45:16;;;;;;;6.63;2.30;;;;;;;10.16;79.42;99151.97;4907248;28;102036;-83
2022/12/24 06:47:42;;;;;;;5.07;1.80;;;;;;;10.19;79.63;99164.94;4947492;28;96880;-83
2022/12/24 06:50:08;;;;;;;3.97;1.85;;;;;;;10.22;79.27;99167.41;4942496;28;97126;-83
2022/12/24 06:52:34;;;;;;;6.70;2.08;;;;;;;10.22;79.35;99170.03;4911281;28;101256;-81
2022/12/24 06:55:00;;;;;;;6.43;2.35;;;;;;;10.18;79.81;99164.09;4931371;28;101381;-82
2022/12/24 06:57:25;;;;;;;7.13;2.25;;;;;;;10.20;79.69;99171.88;4932325;28;96761;-82
2022/12/24 06:59:51;;;;;;;5.38;2.00;;;;;;;10.17;79.51;99172.03;4948172;28;97311;-82
2022/12/24 07:02:16;;;;;;;4.85;2.22;;;;;;;10.18;79.82;99179.81;4930330;28;101239;-82
2022/12/24 07:04:42;;;;;;;3.75;2.00;;;;;;;10.23;79.86;99191.84;4930687;28;101154;-83
2022/12/24 07:07:07;;;;;;;3.35;1.75;;;;;;;10.19;79.81;99189.38;4908948;28;98053;-83
2022/12/24 07:09:33;;;;;;;3.80;1.48;;;;;;;10.24;79.82;99199.66;4943816;28;96879;-83
2022/12/24 07:11:59;;;;;;;5.63;1.60;;;;;;;10.24;79.40;99214.50;4903701;28;98670;-81
2022/12/24 07:14:24;;;;;;;4.65;1.67;;;;;;;10.22;80.16;99213.78;4911638;28;101304;-82
2022/12/24 07:16:50;;;;;;;3.40;1.75;;;;;;;10.19;79.97;99210.34;4897648;28;96765;-83
2022/12/24 07:19:15;;;;;;;5.22;1.65;;;;;;;10.13;79.66;99202.81;4948043;28;98335;-82
2022/12/24 07:21:41;;;;;;;4.22;1.88;;;;;;;10.25;79.85;99243.31;4914266;28;98005;-82
2022/12/24 07:24:06;;;;;;;5.88;2.03;;;;;;;10.25;80.13;99252.94;4896931;28;102238;-83
2022/12/24 07:26:32;;;;;;;4.00;1.77;;;;;;;10.24;80.10;99257.34;4908384;28;97491;-83
2022/12/24 07:28:58;;;;;;;2.75;1.83;;;;;;;10.22;80.00;99264.44;4915825;28;97337;-82
2022/12/24 07:31:23;;;;;;;5.45;2.00;;;;;;;10.24;80.38;99270.47;4919883;28;101223;-83
2022/12/24 07:33:49;;;;;;;4.50;2.63;;;;;;;10.00;80.33;99243.66;4906747;28;98135;-82
2022/12/24 07:36:19;;;;;;;5.20;2.13;;;;;;;10.24;80.05;99280.97;4919157;28;97292;-82
2022/12/24 07:38:44;;;;;;;7.93;1.95;;;;;;;10.21;80.39;99283.72;4939893;28;97283;-82
2022/12/24 07:41:10;;;;;;;3.67;1.60;;;;;;;10.25;80.51;99295.75;4911764;28;100277;-82
2022/12/24 07:43:36;;;;;;;2.75;1.42;;;;;;;10.27;80.75;99300.94;4930774;28;103297;-82
2022/12/24 07:46:01;;;;;;;4.07;1.50;;;;;;;10.20;80.88;99289.88;4913122;28;98278;-83
2022/12/24 07:48:28;;;;;;;3.00;1.33;;;;;;;10.23;80.63;99297.59;4924844;28;96941;-82
2022/12/24 07:50:54;;;;;;;1.92;1.08;;;;;;;10.30;81.26;99311.31;4938247;28;98073;-84
2022/12/24 07:53:20;;;;;;;2.45;1.30;;;;;;;10.23;80.46;99309.88;4926449;28;100523;-84
2022/12/24 07:55:46;;;;;;;2.40;1.20;;;;;;;10.28;80.74;99315.78;4909709;28;97005;-82
2022/12/24 07:58:11;;;;;;;4.95;1.10;;;;;;;10.25;80.85;99319.38;4909187;28;97465;-83
2022/12/24 08:00:37;;;;;;;1.92;0.80;;;;;;;10.05;80.74;99291.47;4918450;28;101283;-84
2022/12/24 08:03:03;;;;;;;0.93;0.82;;;;;;;10.29;81.03;99335.84;4944194;28;100533;-83
2022/12/24 08:05:33;;;;;;;1.30;1.08;;;;;;;10.28;80.62;99335.00;4925454;28;97083;-83
2022/12/24 08:07:58;;;;;;;1.67;1.10;;;;;;;10.30;80.75;99338.41;4911934;28;96934;-83
2022/12/24 08:10:24;;;;;;;1.38;1.00;;;;;;;10.28;81.09;99353.34;4919871;28;98678;-83
2022/12/24 08:12:49;;;;;;;3.00;1.20;;;;;;;10.30;80.68;99350.66;4931750;28;97557;-85
2022/12/24 08:15:15;;;;;;;3.38;1.67;;;;;;;10.31;80.97;99360.22;4905240;28;97336;-84
2022/12/24 08:17:40;;;;;;;4.00;1.90;;;;;;;10.32;80.89;99354.88;4920013;28;97188;-83
2022/12/24 08:20:07;;;;;;;3.33;1.50;;;;;;;10.31;80.97;99361.06;4932183;28;99838;-83
2022/12/24 08:22:33;;;;;;;2.03;1.83;;;;;;;10.23;80.48;99359.69;4922093;28;102005;-83
2022/12/24 08:24:58;;;;;;;5.10;2.03;;;;;;;10.31;80.94;99384.69;4957253;28;97253;-83
2022/12/24 08:27:24;;;;;;;3.13;1.92;;;;;;;10.31;80.92;99378.59;4919868;28;97259;-83
2022/12/24 08:29:49;;;;;;;4.55;2.08;;;;;;;10.24;80.75;99379.75;4910081;28;101763;-83
2022/12/24 08:32:15;;;;;;;3.28;2.50;;;;;;;10.30;80.64;99395.25;4904236;28;97952;-82
2022/12/24 08:34:40;;;;;;;3.38;2.50;;;;;;;10.30;80.55;99387.38;4926163;28;96984;-82
2022/12/24 08:37:06;;;;;;;5.40;3.00;;;;;;;10.31;80.43;99400.41;4935596;28;98033;-84
2022/12/24 08:39:31;;;;;;;4.07;2.90;;;;;;;10.32;80.33;99403.88;4908137;28;101274;-83
2022/12/24 08:41:57;;;;;;;2.80;2.50;;;;;;;10.28;80.69;99412.84;4942200;28;101893;-84
2022/12/24 08:44:23;;;;;;;3.65;2.88;;;;;;;10.29;80.20;99420.63;4893467;28;97934;-84
2022/12/24 08:46:48;;;;;;;3.63;3.08;;;;;;;10.26;80.56;99415.47;4913230;28;97774;-82
2022/12/24 08:49:14;;;;;;;6.45;3.65;;;;;;;10.28;80.16;99418.06;4957818;28;98469;-83
2022/12/24 08:51:40;;;;;;;4.60;3.58;;;;;;;10.28;80.35;99425.94;4910010;28;100470;-82
2022/12/24 08:54:06;;;;;;;5.97;4.00;;;;;;;10.31;80.26;99437.13;4923012;28;97997;-84
2022/12/24 08:56:33;;;;;;;5.50;3.90;;;;;;;10.05;79.92;99401.59;4899185;28;97250;-84
2022/12/24 08:58:59;;;;;;;5.70;4.65;;;;;;;10.29;79.80;99449.47;4924071;28;101142;-84
2022/12/24 09:01:25;;;;;;;5.68;5.07;;;;;;;10.28;79.68;99450.41;4920462;28;100896;-84
2022/12/24 09:03:50;;;;;;;5.32;4.68;;;;;;;10.17;79.83;99435.13;4943877;28;98565;-83
2022/12/24 09:06:16;;;;;;;5.95;5.20;;;;;;;10.23;79.47;99449.72;4936618;28;97842;-87
2022/12/24 09:08:42;;;;;;;6.03;5.05;;;;;;;10.22;79.47;99448.03;4899087;28;101493;-83
2022/12/24 09:11:14;;;;;;;7.13;4.88;;;;;;;10.27;79.80;99460.94;4903145;28;101497;-86
2022/12/24 09:13:40;;;;;;;6.72;4.85;;;;;;;10.28;79.42;99458.28;4930801;28;97399;-86
2022/12/24 09:16:06;;;;;;;8.82;5.75;;;;;;;10.31;79.27;99463.38;4937202;28;97458;-85
2022/12/24 09:18:33;;;;;;;5.20;4.70;;;;;;;10.29;79.35;99461.75;4944519;28;99491;-84
2022/12/24 09:21:01;;;;;;;7.38;5.68;;;;;;;10.35;79.15;99464.91;4945286;28;100949;-84
2022/12/24 09:23:27;;;;;;;5.65;4.00;;;;;;;10.33;79.44;99466.78;4914980;28;97956;-84
2022/12/24 09:25:53;;;;;;;6.32;5.20;;;;;;;10.34;79.12;99467.63;4924775;28;97385;-83
2022/12/24 09:28:19;;;;;;;5.35;4.63;;;;;;;10.35;79.04;99470.16;4928983;28;101680;-84
2022/12/24 09:30:44;;;;;;;5.82;4.65;;;;;;;10.41;79.00;99485.66;4910098;28;97971;-85
2022/12/24 09:33:10;;;;;;;7.10;5.40;;;;;;;10.26;79.01;99452.19;4934704;28;97267;-89
2022/12/24 09:35:39;;;;;;;5.75;4.70;;;;;;;10.34;78.67;99475.50;4929798;28;96870;-90
2022/12/24 09:38:04;;;;;;;7.00;5.43;;;;;;;10.40;79.09;99489.16;4924526;28;100249;-88
2022/12/24 09:40:38;;;;;;;6.20;5.43;;;;;;;10.42;78.91;99491.75;4930138;28;100539;-85
2022/12/24 09:43:10;;;;;;;7.03;5.15;;;;;;;10.41;79.02;99485.66;4942688;28;97993;-84
2022/12/24 09:45:38;;;;;;;5.65;4.90;;;;;;;10.38;79.00;99487.53;4923675;28;97736;-85
2022/12/24 09:48:24;;;;;;;5.55;4.72;;;;;;;10.43;78.96;99510.03;4950451;28;97591;-91
2022/12/24 09:51:04;;;;;;;5.47;4.80;;;;;;;10.45;78.65;99509.97;4911046;28;97827;-91
2022/12/24 09:53:35;;;;;;;5.65;4.82;;;;;;;10.43;78.78;99520.50;4935636;28;97189;-90
2022/12/24 09:56:03;;;;;;;5.90;5.28;;;;;;;10.46;78.84;99523.94;4941322;28;97269;-90
2022/12/24 09:58:42;;;;;;;6.85;5.15;;;;;;;10.45;78.98;99527.47;4909998;28;98481;-90
2022/12/24 10:01:12;;;;;;;6.45;5.10;;;;;;;10.44;78.77;99534.47;4906919;28;100123;-91
2022/12/24 10:03:38;;;;;;;5.68;4.93;;;;;;;10.43;78.75;99535.41;4934083;28;98528;-91
2022/12/24 10:06:10;;;;;;;6.90;5.20;;;;;;;10.46;78.71;99542.28;4923025;28;96998;-88
2022/12/24 10:09:11;;;;;;;5.82;5.18;;;;;;;10.26;79.13;99512.53;4921936;28;101369;-91
2022/12/24 10:12:03;;;;;;;6.53;5.70;;;;;;;10.43;79.08;99552.00;4905810;28;100249;-90
2022/12/24 10:15:00;;;;;;;7.63;5.38;;;;;;;10.43;79.01;99557.25;4930882;28;97015;-90
2022/12/24 10:17:35;;;;;;;7.35;5.90;;;;;;;10.44;78.47;99563.34;4914358;28;97017;-90
2022/12/24 10:20:03;;;;;;;7.20;5.72;;;;;;;10.44;78.45;99558.09;4919114;28;98567;-90
2022/12/24 10:22:35;;;;;;;7.85;5.68;;;;;;;10.45;78.56;99567.69;4920985;28;100040;-90
2022/12/24 10:25:11;;;;;;;8.48;6.07;;;;;;;10.32;78.29;99549.00;4947180;28;98400;-89
2022/12/24 10:27:39;;;;;;;9.27;6.30;;;;;;;10.33;78.59;99565.63;4917228;28;96811;-89
2022/12/24 10:30:15;;;;;;;6.78;5.38;;;;;;;10.39;78.50;99581.94;4928117;28;101688;-88
2022/12/24 10:32:40;;;;;;;7.95;6.07;;;;;;;10.39;78.21;99579.31;4930032;28;97567;-85
2022/12/24 10:35:15;;;;;;;6.15;5.43;;;;;;;10.24;78.60;99558.09;4914314;28;96806;-89
2022/12/24 10:37:51;;;;;;;6.38;5.55;;;;;;;10.37;78.09;99591.63;4912172;28;96982;-89
2022/12/24 10:40:43;;;;;;;5.90;5.13;;;;;;;10.35;78.41;99588.22;4916753;28;101450;-90
2022/12/24 10:43:19;;;;;;;6.57;5.40;;;;;;;10.29;78.41;99588.50;4934618;28;101310;-89
2022/12/24 10:45:51;;;;;;;6.90;5.45;;;;;;;10.36;78.47;99608.31;4910434;28;97560;-81
2022/12/24 10:48:28;;;;;;;7.25;6.10;;;;;;;10.26;78.27;99593.00;4912662;28;96954;-79
2022/12/24 10:51:06;;;;;;;6.70;5.35;;;;;;;10.35;77.89;99614.44;4929305;28;97492;-84
2022/12/24 10:53:48;;;;;;;5.75;5.03;;;;;;;10.36;78.28;99617.97;4942120;28;97952;-79
2022/12/24 10:56:16;;;;;;;7.10;5.28;;;;;;;10.35;78.33;99624.94;4922666;28;97242;-82
2022/12/24 10:58:54;;;;;;;5.88;5.20;;;;;;;10.35;78.17;99622.31;4908848;28;96889;-81
2022/12/24 11:01:46;;;;;;;6.60;5.00;;;;;;;10.34;78.08;99618.00;4953892;28;100226;-88
2022/12/24 11:04:17;;;;;;;6.50;5.65;;;;;;;10.36;77.78;99624.03;4915097;28;101619;-88
2022/12/24 11:06:57;;;;;;;5.70;4.97;;;;;;;10.27;78.41;99607.84;4908949;28;97390;-89
2022/12/24 11:09:35;;;;;;;5.72;4.97;;;;;;;10.39;78.21;99636.19;4912142;28;97485;-88
2022/12/24 11:12:03;;;;;;;7.38;5.57;;;;;;;10.37;78.10;99638.00;4941827;28;101814;-89
2022/12/24 11:14:33;;;;;;;5.95;4.95;;;;;;;10.32;78.18;99626.84;4947467;28;101169;-93
2022/12/24 11:16:58;;;;;;;5.68;4.65;;;;;;;10.38;78.19;99643.22;4893954;28;97830;-89
2022/12/24 11:19:30;;;;;;;7.28;5.88;;;;;;;10.34;78.37;99630.28;4946739;28;97096;-90
2022/12/24 11:22:04;;;;;;;7.07;5.35;;;;;;;10.33;78.05;99637.31;4922798;28;101705;-89
2022/12/24 11:24:33;;;;;;;6.43;5.07;;;;;;;10.38;78.45;99644.94;4942324;28;101392;-87
2022/12/24 11:27:43;;;;;;;5.30;4.07;;;;;;;10.39;78.21;99651.91;4930759;28;97278;-86
2022/12/24 11:30:14;;;;;;;6.20;4.18;;;;;;;10.38;78.30;99645.84;4928790;28;97288;-89
2022/12/24 11:33:07;;;;;;;7.30;5.00;;;;;;;10.41;78.46;99652.69;4933692;28;97921;-89
2022/12/24 11:35:39;;;;;;;7.15;4.07;;;;;;;10.39;78.15;99655.41;4913541;28;101765;-87
2022/12/24 11:38:04;;;;;;;5.82;4.03;;;;;;;10.41;78.09;99663.19;4935164;28;97111;-90
2022/12/24 11:40:43;;;;;;;8.38;4.68;;;;;;;10.31;78.19;99646.16;4939218;28;96866;-89
2022/12/24 11:43:17;;;;;;;6.75;4.25;;;;;;;10.41;77.94;99663.19;4918366;28;98378;-86
2022/12/24 11:45:52;;;;;;;6.85;3.83;;;;;;;10.43;78.03;99674.47;4957597;28;97794;-87
2022/12/24 11:48:31;;;;;;;8.35;4.55;;;;;;;10.42;78.08;99676.25;4914168;28;97272;-83
2022/12/24 11:51:00;;;;;;;5.05;3.85;;;;;;;10.44;78.52;99681.41;4911261;28;96930;-83